Time;durP1;ratioP1;P1;durP2;ratioP2;P2;SDS_P1;SDS_P2;PMS_P1;PMS_P2;Temp;Humidity;BMP_temperature;BMP_pressure;BME280_temperature;BME280_humidity;BME280_pressure;Samples;Min_cycle;Max_cycle;Signal;HPM_P1;HPM_P2
2023/10/27 00:01:04;;;;;;;2.27;1.13;;;;;;;;;;4994212;28;20445;-66
2023/10/27 00:03:31;;;;;;;3.63;1.10;;;;;;;;;;4995189;28;20488;-66
2023/10/27 00:06:00;;;;;;;3.13;1.03;;;;;;;;;;4994056;28;20477;-66
2023/10/27 00:08:29;;;;;;;4.50;2.60;;;;;;;;;;4994082;28;20464;-66
2023/10/27 00:10:56;;;;;;;3.03;0.90;;;;;;;;;;4982620;28;20536;-66
2023/10/27 00:13:23;;;;;;;2.17;0.90;;;;;;;;;;4994971;28;20831;-66
2023/10/27 00:15:51;;;;;;;2.20;1.43;;;;;;;;;;4992199;28;20473;-66
2023/10/27 00:18:18;;;;;;;1.90;0.90;;;;;;;;;;4992943;28;20515;-66
2023/10/27 00:20:45;;;;;;;2.00;0.73;;;;;;;;;;4991628;28;20451;-66
2023/10/27 00:23:13;;;;;;;2.07;1.07;;;;;;;;;;4993596;28;20837;-66
2023/10/27 00:25:41;;;;;;;2.90;0.70;;;;;;;;;;4993187;28;20473;-66
2023/10/27 00:28:08;;;;;;;2.20;1.20;;;;;;;;;;4992091;28;20460;-66
2023/10/27 00:30:35;;;;;;;1.80;0.70;;;;;;;;;;4991675;28;20488;-66
2023/10/27 00:33:02;;;;;;;3.50;1.10;;;;;;;;;;4994918;28;20833;-66
2023/10/27 00:35:29;;;;;;;1.80;0.80;;;;;;;;;;4993247;28;20464;-66
2023/10/27 00:37:57;;;;;;;2.67;1.13;;;;;;;;;;4992875;28;20449;-66
2023/10/27 00:40:25;;;;;;;2.70;0.70;;;;;;;;;;4992270;28;20860;-66
2023/10/27 00:42:53;;;;;;;4.77;0.80;;;;;;;;;;4991370;28;20841;-66
2023/10/27 00:45:20;;;;;;;1.80;0.70;;;;;;;;;;4993435;28;20842;-66
2023/10/27 00:47:48;;;;;;;2.80;1.20;;;;;;;;;;4992279;28;20449;-66
2023/10/27 00:50:15;;;;;;;2.97;1.63;;;;;;;;;;4992843;28;20490;-67
2023/10/27 00:52:42;;;;;;;6.27;0.90;;;;;;;;;;4995934;28;20454;-66
2023/10/27 00:55:09;;;;;;;3.43;1.03;;;;;;;;;;4992179;28;20485;-66
2023/10/27 00:57:37;;;;;;;2.27;1.00;;;;;;;;;;4992132;28;20461;-66
2023/10/27 01:00:07;;;;;;;3.87;1.10;;;;;;;;;;4997527;28;20939;-66
2023/10/27 01:02:35;;;;;;;2.43;0.73;;;;;;;;;;4996067;28;20478;-66
2023/10/27 01:07:30;;;;;;;4.03;1.00;;;;;;;;;;5014414;28;20528;-64
2023/10/27 01:09:57;;;;;;;1.60;0.60;;;;;;;;;;5013174;28;20455;-64
2023/10/27 01:12:24;;;;;;;3.17;1.00;;;;;;;;;;5011634;28;20441;-64
2023/10/27 01:14:51;;;;;;;2.03;0.80;;;;;;;;;;5010930;28;20460;-64
2023/10/27 01:17:20;;;;;;;1.93;0.70;;;;;;;;;;5012640;28;20455;-64
2023/10/27 01:19:47;;;;;;;5.23;1.27;;;;;;;;;;5012351;28;20455;-64
2023/10/27 01:22:15;;;;;;;1.70;0.70;;;;;;;;;;5011347;28;20444;-64
2023/10/27 01:24:43;;;;;;;2.87;1.13;;;;;;;;;;5021108;28;20480;-63
2023/10/27 01:27:10;;;;;;;2.20;0.87;;;;;;;;;;5025720;28;20444;-63
2023/10/27 01:29:37;;;;;;;1.90;0.70;;;;;;;;;;5033636;28;20432;-62
2023/10/27 01:32:05;;;;;;;2.13;0.80;;;;;;;;;;5034258;28;20470;-62
2023/10/27 01:34:32;;;;;;;2.63;0.70;;;;;;;;;;5032121;28;20458;-62
2023/10/27 01:36:59;;;;;;;1.90;0.80;;;;;;;;;;5032543;28;20474;-63
2023/10/27 01:39:26;;;;;;;5.37;1.30;;;;;;;;;;5029496;28;20441;-62
2023/10/27 01:41:54;;;;;;;3.53;0.80;;;;;;;;;;5013209;28;20671;-63
2023/10/27 01:44:21;;;;;;;2.10;0.83;;;;;;;;;;5008266;28;20463;-62
2023/10/27 01:46:48;;;;;;;2.13;0.60;;;;;;;;;;5008248;28;20484;-63
2023/10/27 01:49:15;;;;;;;2.60;1.27;;;;;;;;;;5004969;28;20445;-64
2023/10/27 01:51:43;;;;;;;4.50;1.60;;;;;;;;;;5002561;28;20479;-63
2023/10/27 01:54:10;;;;;;;2.53;0.93;;;;;;;;;;5002908;28;20459;-63
2023/10/27 01:56:37;;;;;;;2.20;1.03;;;;;;;;;;5006451;28;20482;-64
2023/10/27 01:59:05;;;;;;;1.67;0.67;;;;;;;;;;5009691;28;20467;-64
2023/10/27 02:01:32;;;;;;;1.90;0.73;;;;;;;;;;5010362;28;20463;-64
2023/10/27 02:03:59;;;;;;;2.43;0.90;;;;;;;;;;5009102;28;20460;-64
2023/10/27 02:06:28;;;;;;;2.97;1.03;;;;;;;;;;5013422;28;20478;-64
2023/10/27 02:08:55;;;;;;;1.63;0.60;;;;;;;;;;5001221;28;20539;-63
2023/10/27 02:11:23;;;;;;;7.07;1.50;;;;;;;;;;5014813;28;20479;-63
2023/10/27 02:13:50;;;;;;;1.70;0.70;;;;;;;;;;5009658;28;20477;-64
2023/10/27 02:16:18;;;;;;;4.63;1.00;;;;;;;;;;5013338;28;20540;-64
2023/10/27 02:18:45;;;;;;;2.00;0.80;;;;;;;;;;5013315;28;20459;-62
2023/10/27 02:21:12;;;;;;;2.53;0.80;;;;;;;;;;5014353;28;20448;-64
2023/10/27 02:23:39;;;;;;;1.73;0.80;;;;;;;;;;5008269;28;20467;-63
2023/10/27 02:26:07;;;;;;;2.47;1.33;;;;;;;;;;5007519;28;20931;-63
2023/10/27 02:28:34;;;;;;;2.80;1.10;;;;;;;;;;5013528;28;20463;-64
2023/10/27 02:31:01;;;;;;;1.70;0.60;;;;;;;;;;5014307;28;20502;-64
2023/10/27 02:33:29;;;;;;;1.93;0.80;;;;;;;;;;5005288;28;20464;-63
2023/10/27 02:35:57;;;;;;;2.20;0.93;;;;;;;;;;5010385;28;20491;-64
2023/10/27 02:38:24;;;;;;;5.57;0.80;;;;;;;;;;5010713;28;20452;-64
2023/10/27 02:40:51;;;;;;;1.90;0.67;;;;;;;;;;5010951;28;20449;-64
2023/10/27 02:43:18;;;;;;;3.20;0.80;;;;;;;;;;5005813;28;20460;-63
2023/10/27 02:45:45;;;;;;;2.17;0.80;;;;;;;;;;5014413;28;20467;-64
2023/10/27 02:48:12;;;;;;;2.80;0.70;;;;;;;;;;5014544;28;20447;-63
2023/10/27 02:50:40;;;;;;;1.80;0.70;;;;;;;;;;5014648;28;20450;-64
2023/10/27 02:53:09;;;;;;;2.10;0.70;;;;;;;;;;5011066;28;20452;-63
2023/10/27 02:55:36;;;;;;;2.23;0.83;;;;;;;;;;5010447;28;20471;-63
2023/10/27 02:58:04;;;;;;;1.83;0.73;;;;;;;;;;5013594;28;20830;-63
2023/10/27 03:00:31;;;;;;;2.30;0.60;;;;;;;;;;5012300;28;20832;-64
2023/10/27 03:02:58;;;;;;;2.67;0.60;;;;;;;;;;5014095;28;20463;-63
2023/10/27 03:05:25;;;;;;;2.33;0.60;;;;;;;;;;5014621;28;20495;-63
2023/10/27 03:07:53;;;;;;;2.50;0.90;;;;;;;;;;5012368;28;20879;-64
2023/10/27 03:10:20;;;;;;;2.30;1.10;;;;;;;;;;5013053;28;20827;-64
2023/10/27 03:12:47;;;;;;;2.10;0.70;;;;;;;;;;5008796;28;20850;-63
2023/10/27 03:15:14;;;;;;;5.20;1.80;;;;;;;;;;5011771;28;20483;-63
2023/10/27 03:17:41;;;;;;;2.00;0.90;;;;;;;;;;5013412;28;20448;-64
2023/10/27 03:20:09;;;;;;;4.00;0.90;;;;;;;;;;5001172;28;20483;-64
2023/10/27 03:22:36;;;;;;;1.50;0.50;;;;;;;;;;5012912;28;20552;-64
2023/10/27 03:25:05;;;;;;;2.53;0.50;;;;;;;;;;5012933;28;20464;-63
2023/10/27 03:27:33;;;;;;;1.60;0.50;;;;;;;;;;5012257;28;20452;-63
2023/10/27 03:30:00;;;;;;;3.77;0.90;;;;;;;;;;5010946;28;20460;-63
2023/10/27 03:32:28;;;;;;;2.30;0.87;;;;;;;;;;5011624;28;20851;-63
2023/10/27 03:34:55;;;;;;;1.80;0.73;;;;;;;;;;5011261;28;20519;-62
2023/10/27 03:37:22;;;;;;;5.20;1.47;;;;;;;;;;5014603;28;20456;-63
2023/10/27 03:39:49;;;;;;;5.47;1.97;;;;;;;;;;5015318;28;20452;-64
2023/10/27 03:42:17;;;;;;;3.80;1.53;;;;;;;;;;5010934;28;20507;-64
2023/10/27 03:44:44;;;;;;;3.00;1.60;;;;;;;;;;5003768;28;20469;-63
2023/10/27 03:47:11;;;;;;;3.80;1.40;;;;;;;;;;5028510;28;20440;-65
2023/10/27 03:49:39;;;;;;;2.63;0.70;;;;;;;;;;5019659;28;20909;-63
2023/10/27 03:52:06;;;;;;;2.13;1.00;;;;;;;;;;5013654;28;20472;-62
2023/10/27 03:54:35;;;;;;;2.03;0.73;;;;;;;;;;5010098;28;20973;-65
2023/10/27 03:57:02;;;;;;;7.13;1.40;;;;;;;;;;5010152;28;20468;-63
2023/10/27 03:59:31;;;;;;;1.80;0.60;;;;;;;;;;5006971;28;20977;-63
2023/10/27 04:01:58;;;;;;;1.90;0.63;;;;;;;;;;5011688;28;20872;-63
2023/10/27 04:04:25;;;;;;;2.17;0.97;;;;;;;;;;4997841;28;20500;-63
2023/10/27 04:06:53;;;;;;;2.23;0.80;;;;;;;;;;4992723;28;20469;-63
2023/10/27 04:09:21;;;;;;;2.90;1.00;;;;;;;;;;4998850;28;20834;-64
2023/10/27 04:11:49;;;;;;;2.00;0.70;;;;;;;;;;5012351;28;20981;-64
2023/10/27 04:14:17;;;;;;;1.70;0.63;;;;;;;;;;5010121;28;20459;-63
2023/10/27 04:16:46;;;;;;;4.63;0.90;;;;;;;;;;5011823;28;20496;-63
2023/10/27 04:19:13;;;;;;;2.23;0.90;;;;;;;;;;5012371;28;20451;-64
2023/10/27 04:21:40;;;;;;;2.87;0.80;;;;;;;;;;5011180;28;20447;-64
2023/10/27 04:24:07;;;;;;;2.17;0.90;;;;;;;;;;5010591;28;20451;-64
2023/10/27 04:26:35;;;;;;;2.20;1.13;;;;;;;;;;5011908;28;20471;-65
2023/10/27 04:29:03;;;;;;;4.27;1.10;;;;;;;;;;4999449;28;20451;-65
2023/10/27 04:31:30;;;;;;;2.63;0.70;;;;;;;;;;5011775;28;20468;-64
2023/10/27 04:33:58;;;;;;;2.40;0.70;;;;;;;;;;5012107;28;20440;-63
2023/10/27 04:36:25;;;;;;;1.60;0.60;;;;;;;;;;5004553;28;20575;-63
2023/10/27 04:38:52;;;;;;;5.00;0.80;;;;;;;;;;5005441;28;20468;-63
2023/10/27 04:41:19;;;;;;;2.90;1.03;;;;;;;;;;5010071;28;20456;-63
2023/10/27 04:43:46;;;;;;;1.60;0.50;;;;;;;;;;5004086;28;20930;-63
2023/10/27 04:46:13;;;;;;;1.80;0.90;;;;;;;;;;5011355;28;20472;-62
2023/10/27 04:48:40;;;;;;;2.00;0.70;;;;;;;;;;5011186;28;20824;-63
2023/10/27 04:51:09;;;;;;;1.50;0.50;;;;;;;;;;5012673;28;20523;-63
2023/10/27 04:53:37;;;;;;;2.50;1.00;;;;;;;;;;5001422;28;20523;-63
2023/10/27 04:56:05;;;;;;;3.47;1.30;;;;;;;;;;5011540;28;20471;-65
2023/10/27 04:58:32;;;;;;;1.80;0.80;;;;;;;;;;5004175;28;20444;-62
2023/10/27 05:00:59;;;;;;;2.43;0.53;;;;;;;;;;5010429;28;20531;-63
2023/10/27 05:03:27;;;;;;;1.60;0.50;;;;;;;;;;5009731;28;20447;-62
2023/10/27 05:05:54;;;;;;;1.70;0.80;;;;;;;;;;5012186;28;20550;-63
2023/10/27 05:08:22;;;;;;;1.60;0.60;;;;;;;;;;5006926;28;20452;-63
2023/10/27 05:10:49;;;;;;;2.60;0.60;;;;;;;;;;5011076;28;20466;-63
2023/10/27 05:13:16;;;;;;;2.33;1.13;;;;;;;;;;5004262;28;20484;-63
2023/10/27 05:15:53;;;;;;;2.00;0.60;;;;;;;;;;5008439;28;20951;-64
2023/10/27 05:18:20;;;;;;;2.13;0.97;;;;;;;;;;5008899;28;21034;-64
2023/10/27 05:20:47;;;;;;;1.70;0.60;;;;;;;;;;5009737;28;20942;-63
2023/10/27 05:23:15;;;;;;;3.70;1.27;;;;;;;;;;5011313;28;20436;-64
2023/10/27 05:25:43;;;;;;;1.60;0.63;;;;;;;;;;5008864;28;20479;-64
2023/10/27 05:28:10;;;;;;;2.73;0.80;;;;;;;;;;5002673;28;20440;-64
2023/10/27 05:30:37;;;;;;;2.50;0.67;;;;;;;;;;5011280;28;20455;-64
2023/10/27 05:33:05;;;;;;;4.33;0.80;;;;;;;;;;5006594;28;20493;-62
2023/10/27 05:35:32;;;;;;;2.97;0.93;;;;;;;;;;5007868;28;20468;-64
2023/10/27 05:37:59;;;;;;;2.07;0.70;;;;;;;;;;5009895;28;20471;-63
2023/10/27 05:40:31;;;;;;;1.90;1.00;;;;;;;;;;5010806;28;20968;-64
2023/10/27 05:42:59;;;;;;;3.03;1.40;;;;;;;;;;5005979;28;20903;-63
2023/10/27 05:45:27;;;;;;;2.43;1.23;;;;;;;;;;5008400;28;20876;-63
2023/10/27 05:47:54;;;;;;;1.70;0.50;;;;;;;;;;5000227;28;20445;-64
2023/10/27 05:50:21;;;;;;;1.53;0.40;;;;;;;;;;5007985;28;20470;-64
2023/10/27 05:52:48;;;;;;;1.70;0.60;;;;;;;;;;5015831;28;20494;-62
2023/10/27 05:55:15;;;;;;;2.03;0.70;;;;;;;;;;5029904;28;20830;-63
2023/10/27 05:57:42;;;;;;;1.90;0.70;;;;;;;;;;5031599;28;20459;-62
2023/10/27 06:00:12;;;;;;;2.20;0.87;;;;;;;;;;5033531;28;20440;-60
2023/10/27 06:02:39;;;;;;;2.07;0.70;;;;;;;;;;5032624;28;20440;-62
2023/10/27 06:05:06;;;;;;;1.70;0.67;;;;;;;;;;5032799;28;20500;-62
2023/10/27 06:07:33;;;;;;;1.90;0.73;;;;;;;;;;5031391;28;20440;-63
2023/10/27 06:10:00;;;;;;;1.90;0.83;;;;;;;;;;5016973;28;20482;-64
2023/10/27 06:12:27;;;;;;;1.70;0.60;;;;;;;;;;5027539;28;20539;-62
2023/10/27 06:14:54;;;;;;;1.80;0.70;;;;;;;;;;5021123;28;20446;-62
2023/10/27 06:17:23;;;;;;;1.70;0.50;;;;;;;;;;5033647;28;20446;-64
2023/10/27 06:19:50;;;;;;;2.23;1.20;;;;;;;;;;5033547;28;20448;-63
2023/10/27 06:22:20;;;;;;;2.07;0.90;;;;;;;;;;5031853;28;20443;-61
2023/10/27 06:24:47;;;;;;;2.23;0.87;;;;;;;;;;5021802;28;20453;-64
2023/10/27 06:27:15;;;;;;;2.33;1.00;;;;;;;;;;5009460;28;20535;-64
2023/10/27 06:29:42;;;;;;;2.33;0.80;;;;;;;;;;5000431;28;20452;-64
2023/10/27 06:32:09;;;;;;;2.53;0.80;;;;;;;;;;5007003;28;20487;-63
2023/10/27 06:34:37;;;;;;;3.07;0.70;;;;;;;;;;5013416;28;20467;-63
2023/10/27 06:37:05;;;;;;;1.80;0.57;;;;;;;;;;5029187;28;20476;-64
2023/10/27 06:39:32;;;;;;;1.70;0.60;;;;;;;;;;5019576;28;20467;-64
2023/10/27 06:41:59;;;;;;;2.00;1.00;;;;;;;;;;5017155;28;20521;-63
2023/10/27 06:44:26;;;;;;;1.70;0.63;;;;;;;;;;4996090;28;20460;-65
2023/10/27 06:46:54;;;;;;;1.90;0.70;;;;;;;;;;5008559;28;20495;-64
2023/10/27 06:49:21;;;;;;;2.63;0.77;;;;;;;;;;4999947;28;20460;-64
2023/10/27 06:51:50;;;;;;;1.70;0.60;;;;;;;;;;5005125;28;20444;-64
2023/10/27 06:54:17;;;;;;;1.63;0.60;;;;;;;;;;5009679;28;20460;-64
2023/10/27 06:56:45;;;;;;;1.60;0.47;;;;;;;;;;5001839;28;20563;-65
2023/10/27 06:59:12;;;;;;;1.90;0.70;;;;;;;;;;5003043;28;20459;-63
2023/10/27 07:01:39;;;;;;;1.90;0.70;;;;;;;;;;5007787;28;20460;-65
2023/10/27 07:04:06;;;;;;;2.23;0.70;;;;;;;;;;5006551;28;20451;-64
2023/10/27 07:06:33;;;;;;;2.47;0.90;;;;;;;;;;5014686;28;20479;-63
2023/10/27 07:09:03;;;;;;;2.07;0.73;;;;;;;;;;5001296;28;20449;-63
2023/10/27 07:11:30;;;;;;;1.80;0.67;;;;;;;;;;5012354;28;20958;-63
2023/10/27 07:13:57;;;;;;;2.60;0.60;;;;;;;;;;5010326;28;20494;-63
2023/10/27 07:16:24;;;;;;;1.70;0.67;;;;;;;;;;5013523;28;20490;-65
2023/10/27 07:18:51;;;;;;;2.13;0.70;;;;;;;;;;5014657;28;20448;-63
2023/10/27 07:21:18;;;;;;;1.87;0.73;;;;;;;;;;5005702;28;20455;-63
2023/10/27 07:23:45;;;;;;;2.00;0.50;;;;;;;;;;5002909;28;20433;-63
2023/10/27 07:26:15;;;;;;;1.60;0.60;;;;;;;;;;5009850;28;20802;-65
2023/10/27 07:28:42;;;;;;;2.10;0.63;;;;;;;;;;5009214;28;20862;-63
2023/10/27 07:31:09;;;;;;;2.93;0.60;;;;;;;;;;5013391;28;20455;-63
2023/10/27 07:33:38;;;;;;;2.10;0.70;;;;;;;;;;5004312;28;20829;-63
2023/10/27 07:36:05;;;;;;;2.87;1.03;;;;;;;;;;5010652;28;20479;-63
2023/10/27 07:38:34;;;;;;;1.57;0.50;;;;;;;;;;5008029;28;20460;-64
2023/10/27 07:41:03;;;;;;;1.50;0.50;;;;;;;;;;5012964;28;20535;-64
2023/10/27 07:43:31;;;;;;;1.93;0.73;;;;;;;;;;5000752;28;20872;-63
2023/10/27 07:45:58;;;;;;;2.30;0.60;;;;;;;;;;4999496;28;20507;-62
2023/10/27 07:48:25;;;;;;;3.30;0.80;;;;;;;;;;5013758;28;20462;-63
2023/10/27 07:50:56;;;;;;;2.07;0.60;;;;;;;;;;5013099;28;20460;-66
2023/10/27 07:53:23;;;;;;;2.20;0.80;;;;;;;;;;5001967;28;20836;-64
2023/10/27 07:55:51;;;;;;;2.20;0.77;;;;;;;;;;5011761;28;20472;-63
2023/10/27 07:58:18;;;;;;;2.10;0.73;;;;;;;;;;5013521;28;20459;-64
2023/10/27 08:00:46;;;;;;;4.33;0.90;;;;;;;;;;5011203;28;20501;-65
2023/10/27 08:03:13;;;;;;;1.50;0.60;;;;;;;;;;5014932;28;20437;-63
2023/10/27 08:05:40;;;;;;;1.50;0.40;;;;;;;;;;5029026;28;20491;-64
2023/10/27 08:08:07;;;;;;;1.50;0.50;;;;;;;;;;5013357;28;20430;-64
2023/10/27 08:10:37;;;;;;;1.80;0.50;;;;;;;;;;5013111;28;20456;-63
2023/10/27 08:13:05;;;;;;;1.70;0.70;;;;;;;;;;5010424;28;21025;-65
2023/10/27 08:15:32;;;;;;;1.50;0.40;;;;;;;;;;5013442;28;20503;-63
2023/10/27 08:18:01;;;;;;;1.40;0.40;;;;;;;;;;5013684;28;20464;-63
2023/10/27 08:20:40;;;;;;;1.50;0.50;;;;;;;;;;5013338;28;20432;-63
2023/10/27 08:23:07;;;;;;;1.50;0.40;;;;;;;;;;5008481;28;20460;-63
2023/10/27 08:25:34;;;;;;;1.60;0.53;;;;;;;;;;5013354;28;20468;-63
2023/10/27 08:28:01;;;;;;;1.50;0.40;;;;;;;;;;4996889;28;20441;-64
2023/10/27 08:30:28;;;;;;;1.50;0.50;;;;;;;;;;5011939;28;20452;-64
2023/10/27 08:32:55;;;;;;;1.50;0.60;;;;;;;;;;5012184;28;20484;-63
2023/10/27 08:35:24;;;;;;;1.50;0.50;;;;;;;;;;5000450;28;20470;-65
2023/10/27 08:37:51;;;;;;;1.63;0.60;;;;;;;;;;5012575;28;20953;-65
2023/10/27 08:40:18;;;;;;;2.13;0.83;;;;;;;;;;5001997;28;20942;-63
2023/10/27 08:42:45;;;;;;;1.43;0.40;;;;;;;;;;5005849;28;20456;-62
2023/10/27 08:45:13;;;;;;;1.50;0.40;;;;;;;;;;5012733;28;20495;-63
2023/10/27 08:47:40;;;;;;;1.90;0.50;;;;;;;;;;5012146;28;20460;-63
2023/10/27 08:50:07;;;;;;;1.43;0.40;;;;;;;;;;5013600;28;20502;-64
2023/10/27 08:52:36;;;;;;;1.50;0.50;;;;;;;;;;5009767;28;20468;-63
2023/10/27 08:55:03;;;;;;;1.50;0.50;;;;;;;;;;5005399;28;20466;-64
2023/10/27 08:57:30;;;;;;;1.80;0.40;;;;;;;;;;5007101;28;20448;-63
2023/10/27 08:59:57;;;;;;;1.50;0.40;;;;;;;;;;5005891;28;20444;-63
2023/10/27 09:02:30;;;;;;;1.60;0.57;;;;;;;;;;5007738;28;20487;-63
2023/10/27 09:05:03;;;;;;;1.70;0.60;;;;;;;;;;5008481;28;20444;-64
2023/10/27 09:07:30;;;;;;;1.97;0.70;;;;;;;;;;4999962;28;20499;-64
2023/10/27 09:09:59;;;;;;;1.70;0.60;;;;;;;;;;5012769;28;20459;-64
2023/10/27 09:12:28;;;;;;;1.50;0.40;;;;;;;;;;5006891;28;20456;-63
2023/10/27 09:15:04;;;;;;;1.50;0.40;;;;;;;;;;5004853;28;20873;-62
2023/10/27 09:17:31;;;;;;;1.50;0.50;;;;;;;;;;5011263;28;20456;-65
2023/10/27 09:20:05;;;;;;;2.13;0.63;;;;;;;;;;5010663;28;20919;-63
2023/10/27 09:22:32;;;;;;;1.43;0.40;;;;;;;;;;5005304;28;20658;-64
2023/10/27 09:25:14;;;;;;;1.97;0.60;;;;;;;;;;5005783;28;20444;-63
2023/10/27 09:27:46;;;;;;;1.40;0.40;;;;;;;;;;5001902;28;20436;-66
2023/10/27 09:30:14;;;;;;;3.97;0.70;;;;;;;;;;5011611;28;20460;-66
2023/10/27 09:32:44;;;;;;;2.57;0.50;;;;;;;;;;5006214;28;20459;-64
2023/10/27 09:35:13;;;;;;;2.10;0.73;;;;;;;;;;5012753;28;20460;-65
2023/10/27 09:37:42;;;;;;;1.60;0.60;;;;;;;;;;4999272;28;20844;-62
2023/10/27 09:40:11;;;;;;;1.50;0.50;;;;;;;;;;5011177;28;20459;-64
2023/10/27 09:42:38;;;;;;;1.80;0.57;;;;;;;;;;5003664;28;20532;-63
2023/10/27 09:45:11;;;;;;;1.50;0.50;;;;;;;;;;5008393;28;20444;-65
2023/10/27 09:47:45;;;;;;;1.60;0.50;;;;;;;;;;5017630;28;20847;-63
2023/10/27 09:50:14;;;;;;;1.77;0.63;;;;;;;;;;5023769;28;20522;-63
2023/10/27 09:52:43;;;;;;;2.00;0.60;;;;;;;;;;5017112;28;20444;-63
2023/10/27 09:55:13;;;;;;;1.60;0.60;;;;;;;;;;4999374;28;20567;-65
2023/10/27 09:57:41;;;;;;;2.53;0.70;;;;;;;;;;5010361;28;20832;-65
2023/10/27 10:00:13;;;;;;;1.70;0.60;;;;;;;;;;5011771;28;20442;-64
2023/10/27 10:02:42;;;;;;;2.33;0.77;;;;;;;;;;5008438;28;20843;-64
2023/10/27 10:05:11;;;;;;;1.60;0.70;;;;;;;;;;5010916;28;20885;-65
2023/10/27 10:07:41;;;;;;;1.77;0.70;;;;;;;;;;5009647;28;21005;-65
2023/10/27 10:10:26;;;;;;;2.00;1.10;;;;;;;;;;4993593;28;20860;-63
2023/10/27 10:13:03;;;;;;;1.60;0.47;;;;;;;;;;5006931;28;20491;-63
2023/10/27 10:15:32;;;;;;;2.13;0.70;;;;;;;;;;5002551;28;20507;-64
2023/10/27 10:17:59;;;;;;;1.93;0.70;;;;;;;;;;5010215;28;20571;-64
2023/10/27 10:20:45;;;;;;;2.10;0.57;;;;;;;;;;5011574;28;20455;-64
2023/10/27 10:23:12;;;;;;;2.10;0.97;;;;;;;;;;5009556;28;20440;-63
2023/10/27 10:25:50;;;;;;;1.60;0.50;;;;;;;;;;5011440;28;20470;-64
2023/10/27 10:28:24;;;;;;;1.50;0.40;;;;;;;;;;5014546;28;20455;-64
2023/10/27 10:31:22;;;;;;;2.97;0.70;;;;;;;;;;5015407;28;20432;-64
2023/10/27 10:33:51;;;;;;;1.80;0.63;;;;;;;;;;5010896;28;20472;-64
2023/10/27 10:36:26;;;;;;;1.90;0.80;;;;;;;;;;5006032;28;20515;-65
2023/10/27 10:39:00;;;;;;;2.50;0.67;;;;;;;;;;5011024;28;20518;-64
2023/10/27 10:41:52;;;;;;;1.70;0.50;;;;;;;;;;5012360;28;20452;-63
2023/10/27 10:44:19;;;;;;;1.80;0.50;;;;;;;;;;4987071;28;20448;-64
2023/10/27 10:46:47;;;;;;;2.73;0.80;;;;;;;;;;5009149;28;20471;-63
2023/10/27 10:49:23;;;;;;;1.60;0.50;;;;;;;;;;5007749;28;20466;-65
2023/10/27 10:51:52;;;;;;;3.03;0.83;;;;;;;;;;5011393;28;20444;-66
2023/10/27 10:54:20;;;;;;;2.90;0.70;;;;;;;;;;5009326;28;20484;-64
2023/10/27 10:56:47;;;;;;;1.83;0.60;;;;;;;;;;5012008;28;20799;-63
2023/10/27 10:59:21;;;;;;;1.80;0.80;;;;;;;;;;5013406;28;20475;-63
2023/10/27 11:01:55;;;;;;;3.53;0.90;;;;;;;;;;4997225;28;20444;-63
2023/10/27 11:04:29;;;;;;;1.83;0.63;;;;;;;;;;5011926;28;20459;-64
2023/10/27 11:06:59;;;;;;;1.80;0.77;;;;;;;;;;5006509;28;20467;-65
2023/10/27 11:09:26;;;;;;;1.80;0.70;;;;;;;;;;5013789;28;20460;-63
2023/10/27 11:11:54;;;;;;;2.57;0.67;;;;;;;;;;5014226;28;20456;-63
2023/10/27 11:14:21;;;;;;;2.20;0.87;;;;;;;;;;5006639;28;20484;-65
2023/10/27 11:16:55;;;;;;;1.80;0.70;;;;;;;;;;5012792;28;20469;-64
2023/10/27 11:19:23;;;;;;;1.60;0.60;;;;;;;;;;5023633;28;20497;-64
2023/10/27 11:21:54;;;;;;;1.73;0.50;;;;;;;;;;5016403;28;20554;-65
2023/10/27 11:24:21;;;;;;;6.30;0.80;;;;;;;;;;5013076;28;20946;-63
2023/10/27 11:26:48;;;;;;;1.60;0.50;;;;;;;;;;5015158;28;20472;-63
2023/10/27 11:29:16;;;;;;;1.50;0.50;;;;;;;;;;5021866;28;20471;-63
2023/10/27 11:31:44;;;;;;;1.80;0.60;;;;;;;;;;5014646;28;20456;-63
2023/10/27 11:34:12;;;;;;;1.90;0.50;;;;;;;;;;5025388;28;20465;-63
2023/10/27 11:36:42;;;;;;;1.50;0.50;;;;;;;;;;5023603;28;20475;-64
2023/10/27 11:39:14;;;;;;;4.00;0.63;;;;;;;;;;5012171;28;20474;-63
2023/10/27 11:41:41;;;;;;;1.50;0.50;;;;;;;;;;5010020;28;20471;-63
2023/10/27 11:44:08;;;;;;;2.67;1.00;;;;;;;;;;5007083;28;20449;-63
2023/10/27 11:46:35;;;;;;;3.07;1.33;;;;;;;;;;5006322;28;20481;-62
2023/10/27 11:49:03;;;;;;;2.63;0.83;;;;;;;;;;5005483;28;20482;-64
2023/10/27 11:51:30;;;;;;;2.23;0.70;;;;;;;;;;5000485;28;20436;-63
2023/10/27 11:53:58;;;;;;;1.70;0.80;;;;;;;;;;5006543;28;20488;-63
2023/10/27 11:56:26;;;;;;;2.73;0.80;;;;;;;;;;5007817;28;20588;-62
2023/10/27 11:58:53;;;;;;;1.80;0.60;;;;;;;;;;5011252;28;20486;-61
2023/10/27 12:01:20;;;;;;;1.70;0.60;;;;;;;;;;5012350;28;20951;-64
2023/10/27 12:03:48;;;;;;;1.50;0.50;;;;;;;;;;5012435;28;20560;-63
2023/10/27 12:06:15;;;;;;;4.67;1.00;;;;;;;;;;5000184;28;20480;-63
2023/10/27 12:08:42;;;;;;;1.50;0.50;;;;;;;;;;5011680;28;20460;-63
2023/10/27 12:11:09;;;;;;;1.50;0.60;;;;;;;;;;5011361;28;20448;-63
2023/10/27 12:13:38;;;;;;;1.83;0.97;;;;;;;;;;5001712;28;20451;-63
2023/10/27 12:16:05;;;;;;;2.40;0.50;;;;;;;;;;4999323;28;20491;-64
2023/10/27 12:18:33;;;;;;;3.83;0.60;;;;;;;;;;5012336;28;20460;-65
2023/10/27 12:21:01;;;;;;;2.27;0.60;;;;;;;;;;5013166;28;20464;-63
2023/10/27 12:23:29;;;;;;;1.67;0.53;;;;;;;;;;5010210;28;20495;-64
2023/10/27 12:25:57;;;;;;;1.40;0.50;;;;;;;;;;5007027;28;20461;-65
2023/10/27 12:28:24;;;;;;;1.73;0.47;;;;;;;;;;5002406;28;20828;-63
2023/10/27 12:30:52;;;;;;;1.97;0.73;;;;;;;;;;5013182;28;20444;-66
2023/10/27 12:33:19;;;;;;;2.20;0.80;;;;;;;;;;5025785;28;20468;-63
2023/10/27 12:35:48;;;;;;;2.50;0.90;;;;;;;;;;5018647;28;20488;-63
2023/10/27 12:38:16;;;;;;;1.73;0.63;;;;;;;;;;5001634;28;20467;-63
2023/10/27 12:40:44;;;;;;;2.90;0.70;;;;;;;;;;5012814;28;20448;-65
2023/10/27 12:43:12;;;;;;;2.40;0.70;;;;;;;;;;5008214;28;20577;-63
2023/10/27 12:45:39;;;;;;;1.50;0.50;;;;;;;;;;4997963;28;20468;-67
2023/10/27 12:48:08;;;;;;;2.27;0.60;;;;;;;;;;5011491;28;20456;-63
2023/10/27 12:50:36;;;;;;;6.37;0.70;;;;;;;;;;5009739;28;20443;-64
2023/10/27 12:53:03;;;;;;;3.60;0.50;;;;;;;;;;5004083;28;20437;-63
2023/10/27 12:55:30;;;;;;;3.97;0.97;;;;;;;;;;5008799;28;20492;-63
2023/10/27 12:57:58;;;;;;;1.40;0.40;;;;;;;;;;5010899;28;20518;-63
2023/10/27 13:00:27;;;;;;;1.70;0.73;;;;;;;;;;5011836;28;20452;-63
2023/10/27 13:02:55;;;;;;;2.47;0.77;;;;;;;;;;5004844;28;20455;-64
2023/10/27 13:05:23;;;;;;;1.77;1.00;;;;;;;;;;5035977;23;21423;-65
2023/10/27 13:07:50;;;;;;;1.50;0.50;;;;;;;;;;5030156;28;20805;-65
2023/10/27 13:10:18;;;;;;;9.20;1.00;;;;;;;;;;5021385;28;20516;-64
2023/10/27 13:12:45;;;;;;;1.60;0.50;;;;;;;;;;5027834;28;20435;-64
2023/10/27 13:15:13;;;;;;;2.40;0.80;;;;;;;;;;5021500;28;20495;-64
2023/10/27 13:17:40;;;;;;;1.70;0.60;;;;;;;;;;5043531;28;20451;-63
2023/10/27 13:20:08;;;;;;;1.50;0.50;;;;;;;;;;5042872;28;20449;-64
2023/10/27 13:22:37;;;;;;;1.87;0.50;;;;;;;;;;5029721;28;20454;-63
2023/10/27 13:25:05;;;;;;;1.80;0.60;;;;;;;;;;5021718;28;20479;-64
2023/10/27 13:27:33;;;;;;;1.50;0.57;;;;;;;;;;5026513;28;20478;-64
2023/10/27 13:30:04;;;;;;;1.40;0.40;;;;;;;;;;5025044;28;20464;-64
2023/10/27 13:32:31;;;;;;;1.80;0.50;;;;;;;;;;5018187;28;20450;-64
2023/10/27 13:34:58;;;;;;;1.77;0.50;;;;;;;;;;5028008;28;20475;-64
2023/10/27 13:37:27;;;;;;;1.40;0.50;;;;;;;;;;5023006;28;20553;-63
2023/10/27 13:39:57;;;;;;;1.40;0.50;;;;;;;;;;5018507;28;20671;-64
2023/10/27 13:42:24;;;;;;;1.60;0.50;;;;;;;;;;5033951;28;20443;-65
2023/10/27 13:44:51;;;;;;;1.73;0.87;;;;;;;;;;5021419;28;20446;-63
2023/10/27 13:47:18;;;;;;;7.53;1.00;;;;;;;;;;5018647;28;20933;-64
2023/10/27 13:49:46;;;;;;;3.10;0.70;;;;;;;;;;5023490;28;21010;-64
2023/10/27 13:52:13;;;;;;;1.47;0.50;;;;;;;;;;5012981;28;20543;-64
2023/10/27 13:54:40;;;;;;;46.93;18.57;;;;;;;;;;5024354;28;20483;-64
2023/10/27 13:57:10;;;;;;;2.90;1.10;;;;;;;;;;5033884;28;20454;-64
2023/10/27 13:59:40;;;;;;;1.60;0.60;;;;;;;;;;5012468;28;20934;-64
2023/10/27 14:02:07;;;;;;;1.70;0.63;;;;;;;;;;5015699;28;20913;-64
2023/10/27 14:04:35;;;;;;;1.50;0.53;;;;;;;;;;5039044;28;20543;-64
2023/10/27 14:07:02;;;;;;;1.80;1.00;;;;;;;;;;5027708;28;21047;-65
2023/10/27 14:09:29;;;;;;;3.47;0.77;;;;;;;;;;5026016;28;20826;-64
2023/10/27 14:11:58;;;;;;;1.80;0.90;;;;;;;;;;5035729;28;20488;-65
2023/10/27 14:14:27;;;;;;;1.80;0.70;;;;;;;;;;5031517;28;20470;-63
2023/10/27 14:16:54;;;;;;;1.50;0.50;;;;;;;;;;5027656;28;20474;-63
2023/10/27 14:19:21;;;;;;;1.53;0.50;;;;;;;;;;5023959;28;20467;-64
2023/10/27 14:21:48;;;;;;;1.47;0.50;;;;;;;;;;5018610;28;20451;-65
2023/10/27 14:24:17;;;;;;;2.00;0.80;;;;;;;;;;5039068;28;20528;-63
2023/10/27 14:26:46;;;;;;;2.83;0.70;;;;;;;;;;5037068;28;20466;-63
2023/10/27 14:29:13;;;;;;;4.23;0.60;;;;;;;;;;5025976;28;20454;-63
2023/10/27 14:31:41;;;;;;;1.40;0.47;;;;;;;;;;5021100;28;20459;-63
2023/10/27 14:34:09;;;;;;;2.13;1.00;;;;;;;;;;5036172;28;20435;-63
2023/10/27 14:36:37;;;;;;;1.50;0.50;;;;;;;;;;5021293;28;20984;-64
2023/10/27 14:39:05;;;;;;;1.40;0.40;;;;;;;;;;5021326;28;20439;-64
2023/10/27 14:41:34;;;;;;;1.60;0.60;;;;;;;;;;5030939;28;20488;-64
2023/10/27 14:44:01;;;;;;;1.40;0.50;;;;;;;;;;5025696;28;20448;-64
2023/10/27 14:46:31;;;;;;;1.70;0.63;;;;;;;;;;5034074;28;20471;-64
2023/10/27 14:49:00;;;;;;;1.50;0.50;;;;;;;;;;5019469;28;20452;-66
2023/10/27 14:51:28;;;;;;;1.70;0.60;;;;;;;;;;5022856;28;20887;-64